createdAt,value
2022-10-07T00:00:24.321Z,7.23
2022-10-07T00:04:25.213Z,6.27
2022-10-07T00:08:26.300Z,9.20
2022-10-07T00:12:28.224Z,5.43
2022-10-07T00:16:31.917Z,7.23
2022-10-07T00:20:40.089Z,7.13
2022-10-07T00:24:41.478Z,9.70
2022-10-07T00:28:43.068Z,6.50
2022-10-07T00:32:44.146Z,6.10
2022-10-07T00:36:45.320Z,6.23
2022-10-07T00:40:46.640Z,7.90
2022-10-07T00:44:48.136Z,6.27
2022-10-07T00:48:49.473Z,7.57
2022-10-07T00:52:54.256Z,5.00
2022-10-07T00:56:55.772Z,4.73
2022-10-07T01:00:57.582Z,7.37
2022-10-07T01:05:01.024Z,6.60
2022-10-07T01:09:01.894Z,5.87
2022-10-07T01:13:06.755Z,5.63
2022-10-07T01:17:11.522Z,6.27
2022-10-07T01:21:19.599Z,6.20
2022-10-07T01:25:44.877Z,10.63
2022-10-07T01:29:55.566Z,4.03
2022-10-07T01:33:56.541Z,4.77
2022-10-07T01:38:00.855Z,5.03
2022-10-07T01:42:02.751Z,3.27
2022-10-07T01:46:07.162Z,4.30
2022-10-07T01:50:16.200Z,5.23
2022-10-07T01:54:39.580Z,7.50
2022-10-07T01:59:00.876Z,5.10
2022-10-07T02:03:16.831Z,6.97
2022-10-07T02:07:21.705Z,5.80
2022-10-07T02:11:26.734Z,5.40
2022-10-07T02:15:31.458Z,5.40
2022-10-07T02:19:35.251Z,6.90
2022-10-07T02:23:39.461Z,5.97
2022-10-07T02:27:42.809Z,5.63
2022-10-07T02:31:45.471Z,7.23
2022-10-07T02:35:54.120Z,6.93
2022-10-07T02:39:56.770Z,4.80
2022-10-07T02:44:16.757Z,6.00
2022-10-07T02:48:21.592Z,5.73
2022-10-07T02:52:23.643Z,8.70
2022-10-07T02:56:25.865Z,5.03
2022-10-07T03:00:30.039Z,8.07
2022-10-07T03:04:31.446Z,4.23
2022-10-07T03:08:32.728Z,3.70
2022-10-07T03:12:33.756Z,4.80
2022-10-07T03:16:34.773Z,5.47
2022-10-07T03:20:35.848Z,4.77
2022-10-07T03:24:37.086Z,6.73
2022-10-07T03:28:38.113Z,5.03
2022-10-07T03:32:40.804Z,4.10
2022-10-07T03:36:42.026Z,4.73
2022-10-07T03:40:44.109Z,4.90
2022-10-07T03:44:45.561Z,5.53
2022-10-07T03:48:46.632Z,13.03
2022-10-07T03:52:47.463Z,9.83
2022-10-07T03:56:48.611Z,5.17
2022-10-07T04:00:49.633Z,4.97
2022-10-07T04:04:53.181Z,6.90
2022-10-07T04:08:54.945Z,5.03
2022-10-07T04:12:56.171Z,4.80
2022-10-07T04:16:57.193Z,5.83
2022-10-07T04:21:01.188Z,7.53
2022-10-07T04:25:22.062Z,7.77
2022-10-07T04:29:23.187Z,7.53
2022-10-07T04:33:24.299Z,5.10
2022-10-07T04:37:25.578Z,6.47
2022-10-07T04:41:26.662Z,6.17
2022-10-07T04:45:27.688Z,6.07
2022-10-07T04:49:28.693Z,7.33
2022-10-07T04:53:31.244Z,6.17
2022-10-07T04:57:32.488Z,5.97
2022-10-07T05:01:33.520Z,12.67
2022-10-07T05:05:34.872Z,5.77
2022-10-07T05:09:35.877Z,7.80
2022-10-07T05:13:37.827Z,5.83
2022-10-07T05:17:41.866Z,5.77
2022-10-07T05:21:43.304Z,4.63
2022-10-07T05:25:45.054Z,5.47
2022-10-07T05:29:46.209Z,7.53
2022-10-07T05:33:48.753Z,5.07
2022-10-07T05:37:53.267Z,7.37
2022-10-07T05:41:54.945Z,6.80
2022-10-07T05:46:05.211Z,4.67
2022-10-07T05:50:07.422Z,5.13
2022-10-07T05:54:08.336Z,7.80
2022-10-07T05:58:09.236Z,6.13
2022-10-07T06:02:13.320Z,45.17
2022-10-07T06:06:14.501Z,14.77
2022-10-07T06:10:33.860Z,12.77
2022-10-07T06:14:35.132Z,9.57
2022-10-07T06:18:36.521Z,7.67
2022-10-07T06:22:37.668Z,6.83
2022-10-07T06:26:38.669Z,7.73
2022-10-07T06:30:39.657Z,6.73
2022-10-07T06:34:40.566Z,5.73
2022-10-07T06:38:45.261Z,7.83
2022-10-07T06:42:46.460Z,10.47
2022-10-07T06:46:47.475Z,6.30
2022-10-07T06:50:53.226Z,29.77
2022-10-07T06:54:54.259Z,13.03
2022-10-07T06:58:55.345Z,9.17
2022-10-07T07:02:59.699Z,6.83
2022-10-07T07:07:01.522Z,9.03
2022-10-07T07:11:08.232Z,9.03
2022-10-07T07:15:09.657Z,20.73
2022-10-07T07:19:11.722Z,11.13
2022-10-07T07:23:12.764Z,11.73
2022-10-07T07:27:14.497Z,11.93
2022-10-07T07:31:15.621Z,14.57
2022-10-07T07:35:16.747Z,10.03
2022-10-07T07:39:18.402Z,10.20
2022-10-07T07:43:19.461Z,9.83
2022-10-07T07:47:21.340Z,12.53
2022-10-07T07:51:22.385Z,11.77
2022-10-07T07:55:23.417Z,8.43
2022-10-07T07:59:24.687Z,9.20
2022-10-07T08:03:25.968Z,12.83
2022-10-07T08:07:26.959Z,8.43
2022-10-07T08:11:28.338Z,6.37
2022-10-07T08:15:29.543Z,7.57
2022-10-07T08:19:30.441Z,11.83
2022-10-07T08:23:31.299Z,6.57
2022-10-07T08:27:32.958Z,11.97
2022-10-07T08:31:35.197Z,11.60
2022-10-07T08:35:36.267Z,8.97
2022-10-07T08:39:37.301Z,9.17
2022-10-07T08:43:42.040Z,6.07
2022-10-07T08:47:45.760Z,6.73
2022-10-07T08:51:50.651Z,13.70
2022-10-07T08:55:54.903Z,3.57
2022-10-07T08:59:59.668Z,2.53
2022-10-07T09:04:04.607Z,4.13
2022-10-07T09:08:16.790Z,6.47
2022-10-07T09:12:24.393Z,3.30
2022-10-07T09:16:32.512Z,8.17
2022-10-07T09:20:37.377Z,2.40
2022-10-07T09:24:38.761Z,8.77
2022-10-07T09:28:40.364Z,5.00
2022-10-07T09:32:44.971Z,3.70
2022-10-07T09:37:19.928Z,5.73
2022-10-07T09:41:31.316Z,4.87
2022-10-07T09:45:32.804Z,6.67
2022-10-07T09:49:40.866Z,8.03
2022-10-07T09:54:03.488Z,3.63
2022-10-07T09:58:07.735Z,4.70
2022-10-07T10:02:18.758Z,6.13
2022-10-07T10:06:21.297Z,6.67
2022-10-07T10:10:26.402Z,7.17
2022-10-07T10:14:45.939Z,3.63
2022-10-07T10:18:56.025Z,9.20
2022-10-07T10:22:59.067Z,5.23
2022-10-07T10:27:03.831Z,6.10
2022-10-07T10:31:29.179Z,5.00
2022-10-07T10:35:52.521Z,4.13
2022-10-07T10:40:09.360Z,5.20
2022-10-07T10:44:14.021Z,3.87
2022-10-07T10:48:43.650Z,4.83
2022-10-07T10:52:57.335Z,3.77
2022-10-07T10:57:12.319Z,7.80
2022-10-07T11:01:20.479Z,5.80
2022-10-07T11:05:27.425Z,6.40
2022-10-07T11:09:50.205Z,5.40
2022-10-07T11:13:58.132Z,3.20
2022-10-07T11:18:03.015Z,5.60
2022-10-07T11:22:08.246Z,3.00
2022-10-07T11:26:34.467Z,4.20
2022-10-07T11:30:37.089Z,7.80
2022-10-07T11:34:51.010Z,4.53
2022-10-07T11:38:52.339Z,6.63
2022-10-07T11:42:55.104Z,6.47
2022-10-07T11:46:59.674Z,4.47
2022-10-07T11:51:06.322Z,6.93
2022-10-07T11:55:11.302Z,5.13
2022-10-07T11:59:33.911Z,5.50
2022-10-07T12:03:41.756Z,5.17
2022-10-07T12:07:58.116Z,5.23
2022-10-07T12:11:59.093Z,8.90
2022-10-07T12:16:04.049Z,5.33
2022-10-07T12:20:40.512Z,7.67
2022-10-07T12:24:45.287Z,7.07
2022-10-07T12:28:48.698Z,4.47
2022-10-07T12:32:55.422Z,9.63
2022-10-07T12:37:03.684Z,6.90
2022-10-07T12:41:08.554Z,5.87
2022-10-07T12:45:10.831Z,3.07
2022-10-07T12:49:27.153Z,6.17
2022-10-07T12:53:32.134Z,4.90
2022-10-07T12:57:36.260Z,6.00
2022-10-07T13:01:59.359Z,4.67
2022-10-07T13:06:09.887Z,6.67
2022-10-07T13:10:32.549Z,6.43
2022-10-07T13:14:52.139Z,5.57
2022-10-07T13:19:16.702Z,7.30
2022-10-07T13:23:23.347Z,6.90
2022-10-07T13:27:27.178Z,3.33
2022-10-07T13:31:31.023Z,6.57
2022-10-07T13:35:37.524Z,11.30
2022-10-07T13:39:35.617Z,11.63
2022-10-07T13:43:38.005Z,6.20
2022-10-07T13:47:41.048Z,4.07
2022-10-07T13:51:42.398Z,6.20
2022-10-07T13:55:45.182Z,9.43
2022-10-07T13:59:47.745Z,7.80
2022-10-07T14:04:04.389Z,7.03
2022-10-07T14:08:14.878Z,6.90
2022-10-07T14:12:37.630Z,3.73
2022-10-07T14:16:39.529Z,8.93
2022-10-07T14:20:45.363Z,10.93
2022-10-07T14:24:59.771Z,9.67
2022-10-07T14:29:04.678Z,10.17
2022-10-07T14:33:33.060Z,6.43
2022-10-07T14:37:34.810Z,5.03
2022-10-07T14:41:35.813Z,5.10
2022-10-07T14:45:36.812Z,7.73
2022-10-07T14:49:37.933Z,5.07
2022-10-07T14:53:41.342Z,6.80
2022-10-07T14:57:42.503Z,5.73
2022-10-07T15:01:43.362Z,4.60
2022-10-07T15:05:44.654Z,9.00
2022-10-07T15:09:46.009Z,6.63
2022-10-07T15:13:49.315Z,4.33
2022-10-07T15:17:50.271Z,6.90
2022-10-07T15:21:52.099Z,9.30
2022-10-07T15:25:53.180Z,10.90
2022-10-07T15:29:54.779Z,7.47
2022-10-07T15:33:56.953Z,7.57
2022-10-07T15:37:57.928Z,4.43
2022-10-07T15:41:59.527Z,10.37
2022-10-07T15:46:01.147Z,4.63
2022-10-07T15:50:02.494Z,4.57
2022-10-07T15:54:05.113Z,4.27
2022-10-07T15:58:06.222Z,4.80
2022-10-07T16:02:14.544Z,5.77
2022-10-07T16:06:20.884Z,8.30
2022-10-07T16:10:21.987Z,7.43
2022-10-07T16:14:23.005Z,11.47
2022-10-07T16:18:24.065Z,3.93
2022-10-07T16:22:25.264Z,13.27
2022-10-07T16:26:29.562Z,7.90
2022-10-07T16:30:42.456Z,5.20
2022-10-07T16:34:44.147Z,7.00
2022-10-07T16:38:45.889Z,7.13
2022-10-07T16:42:47.391Z,11.33
2022-10-07T16:46:48.868Z,4.97
2022-10-07T16:50:50.140Z,8.57
2022-10-07T16:54:51.356Z,11.27
2022-10-07T16:58:57.954Z,7.17
2022-10-07T17:02:59.189Z,8.97
2022-10-07T17:07:00.271Z,6.43
2022-10-07T17:11:02.200Z,7.33
2022-10-07T17:15:04.023Z,10.03
2022-10-07T17:19:07.031Z,5.87
2022-10-07T17:23:08.237Z,11.40
2022-10-07T17:27:09.252Z,8.77
2022-10-07T17:31:12.791Z,6.60
2022-10-07T17:35:14.243Z,6.17
2022-10-07T17:39:15.630Z,7.80
2022-10-07T17:43:16.659Z,8.40
2022-10-07T17:47:18.830Z,5.97
2022-10-07T17:51:23.419Z,6.37
2022-10-07T17:55:24.445Z,12.23
2022-10-07T17:59:26.378Z,8.10
2022-10-07T18:03:27.496Z,13.80
2022-10-07T18:07:28.759Z,14.03
2022-10-07T18:11:48.769Z,9.30
2022-10-07T18:15:58.477Z,17.07
2022-10-07T18:20:00.386Z,18.70
2022-10-07T18:24:01.367Z,26.07
2022-10-07T18:28:02.959Z,14.17
2022-10-07T18:32:06.036Z,12.43
2022-10-07T18:36:10.420Z,11.67
2022-10-07T18:40:11.557Z,15.40
2022-10-07T18:44:13.141Z,35.60
2022-10-07T18:48:14.182Z,16.37
2022-10-07T18:52:15.299Z,19.40
2022-10-07T18:56:19.379Z,15.30
2022-10-07T19:00:20.827Z,11.67
2022-10-07T19:04:22.122Z,13.05
2022-10-07T19:08:23.443Z,13.40
2022-10-07T19:12:29.082Z,24.27
2022-10-07T19:16:36.659Z,20.40
2022-10-07T19:20:38.196Z,21.73
2022-10-07T19:24:57.457Z,20.27
2022-10-07T19:28:58.482Z,28.73
2022-10-07T19:32:59.540Z,21.97
2022-10-07T19:37:00.641Z,26.47
2022-10-07T19:41:02.403Z,48.20
2022-10-07T19:45:05.644Z,29.57
2022-10-07T19:49:08.607Z,26.87
2022-10-07T19:53:09.637Z,20.80
2022-10-07T19:57:12.177Z,19.77
2022-10-07T20:01:14.766Z,18.30
2022-10-07T20:05:15.956Z,24.10
2022-10-07T20:09:17.980Z,27.00
2022-10-07T20:13:19.046Z,30.07
2022-10-07T20:17:19.960Z,27.03
2022-10-07T20:21:22.928Z,23.43
2022-10-07T20:25:24.945Z,26.47
2022-10-07T20:29:26.054Z,22.37
2022-10-07T20:33:26.995Z,27.10
2022-10-07T20:37:28.070Z,17.83
2022-10-07T20:41:47.916Z,19.00
2022-10-07T20:45:56.664Z,20.57
2022-10-07T20:49:59.723Z,21.83
2022-10-07T20:54:02.464Z,24.13
2022-10-07T20:58:04.375Z,31.37
2022-10-07T21:02:09.463Z,21.50
2022-10-07T21:06:10.037Z,26.50
2022-10-07T21:10:10.986Z,23.63
2022-10-07T21:14:12.597Z,22.37
2022-10-07T21:18:14.060Z,20.53
2022-10-07T21:22:14.996Z,20.73
2022-10-07T21:26:16.501Z,24.50
2022-10-07T21:30:17.456Z,19.77
2022-10-07T21:34:18.412Z,19.87
2022-10-07T21:38:19.382Z,29.50
2022-10-07T21:42:20.541Z,19.83
2022-10-07T21:46:22.754Z,20.77
2022-10-07T21:50:24.461Z,17.80
2022-10-07T21:54:25.529Z,19.13
2022-10-07T21:58:27.308Z,19.27
2022-10-07T22:02:28.580Z,17.63
2022-10-07T22:06:49.428Z,20.30
2022-10-07T22:10:59.597Z,20.47
2022-10-07T22:15:00.535Z,19.00
2022-10-07T22:19:01.875Z,17.50
2022-10-07T22:23:02.742Z,19.53
2022-10-07T22:27:03.821Z,17.83
2022-10-07T22:31:07.022Z,19.87
2022-10-07T22:35:26.882Z,17.37
2022-10-07T22:39:28.580Z,18.33
2022-10-07T22:43:29.674Z,21.60
2022-10-07T22:47:30.611Z,18.07
2022-10-07T22:51:31.620Z,22.27
2022-10-07T22:55:33.070Z,19.47
2022-10-07T22:59:33.900Z,19.33
2022-10-07T23:03:39.066Z,19.73
2022-10-07T23:07:40.055Z,21.33
2022-10-07T23:11:40.922Z,18.33
2022-10-07T23:15:41.810Z,17.03
2022-10-07T23:19:42.807Z,21.07
2022-10-07T23:23:45.756Z,19.37
2022-10-07T23:27:47.304Z,17.80
2022-10-07T23:31:48.280Z,18.33
2022-10-07T23:35:49.335Z,19.50
2022-10-07T23:39:50.668Z,18.60
2022-10-07T23:43:53.438Z,17.97
2022-10-07T23:47:54.575Z,18.53
2022-10-07T23:51:55.473Z,17.17
2022-10-07T23:55:56.550Z,16.03
2022-10-07T23:59:57.608Z,16.40
